Terminal Aerodrome Forecast
Issued by NWS Binghamton, NY

Home | Current Version | Previous Version | Text Only | Print | Product List | Glossary On
Versions: 1 2 3 4 5 6 7 8 9 10 11 12 13 14
000
FTUS41 KBGM 291721
TAFSYR
TAF
KSYR 291721Z 2918/3018 33011G16KT P6SM SCT040
     FM300000 VRB02KT P6SM SKC
     FM301500 26004KT P6SM FEW040 SCT150=

USA.gov is the U.S. government's official web portal to all federal, state and local government web resources and services.